createdAt,value
2018-09-19T00:00:06.037Z,21.93
2018-09-19T00:00:41.217Z,21.85
2018-09-19T00:01:16.577Z,21.83
2018-09-19T00:01:51.791Z,21.83
2018-09-19T00:02:26.969Z,21.84
2018-09-19T00:03:02.133Z,21.86
2018-09-19T00:03:37.318Z,21.84
2018-09-19T00:04:12.665Z,21.80
2018-09-19T00:04:47.986Z,21.81
2018-09-19T00:05:23.203Z,21.76
2018-09-19T00:05:58.520Z,21.80
2018-09-19T00:06:33.669Z,21.81
2018-09-19T00:07:08.816Z,21.74
2018-09-19T00:07:44.622Z,21.81
2018-09-19T00:08:19.901Z,21.81
2018-09-19T00:08:55.086Z,21.81
2018-09-19T00:09:30.279Z,21.81
2018-09-19T00:10:05.672Z,21.80
2018-09-19T00:10:41.036Z,21.74
2018-09-19T00:11:16.341Z,21.82
2018-09-19T00:11:51.562Z,21.81
2018-09-19T00:12:26.702Z,21.77
2018-09-19T00:13:01.878Z,21.72
2018-09-19T00:13:37.242Z,21.69
2018-09-19T00:14:12.562Z,21.74
2018-09-19T00:14:47.979Z,21.69
2018-09-19T00:15:23.200Z,21.69
2018-09-19T00:15:58.373Z,21.68
2018-09-19T00:16:33.765Z,21.69
2018-09-19T00:17:08.960Z,21.74
2018-09-19T00:17:44.371Z,21.70
2018-09-19T00:18:19.712Z,21.66
2018-09-19T00:18:54.888Z,21.60
2018-09-19T00:19:30.195Z,21.59
2018-09-19T00:20:05.756Z,21.61
2018-09-19T00:20:41.156Z,21.60
2018-09-19T00:21:16.519Z,21.58
2018-09-19T00:21:51.813Z,21.65
2018-09-19T00:22:27.136Z,21.66
2018-09-19T00:23:02.315Z,21.65
2018-09-19T00:23:37.537Z,21.73
2018-09-19T00:24:12.848Z,21.70
2018-09-19T00:24:48.340Z,21.68
2018-09-19T00:25:23.534Z,21.64
2018-09-19T00:25:58.694Z,21.63
2018-09-19T00:26:33.874Z,21.67
2018-09-19T00:27:09.051Z,21.69
2018-09-19T00:27:44.495Z,21.76
2018-09-19T00:28:20.132Z,21.75
2018-09-19T00:28:55.326Z,21.66
2018-09-19T00:29:30.516Z,21.64
2018-09-19T00:30:05.695Z,21.59
2018-09-19T00:30:40.965Z,21.60
2018-09-19T00:31:16.276Z,21.52
2018-09-19T00:31:51.459Z,21.55
2018-09-19T00:32:26.645Z,21.54
2018-09-19T00:33:01.998Z,21.50
2018-09-19T00:33:37.188Z,21.50
2018-09-19T00:34:12.486Z,21.50
2018-09-19T00:34:47.863Z,21.54
2018-09-19T00:35:22.967Z,21.64
2018-09-19T00:35:58.145Z,21.59
2018-09-19T00:36:33.399Z,21.60
2018-09-19T00:37:08.563Z,21.64
2018-09-19T00:37:44.138Z,21.63
2018-09-19T00:38:19.447Z,21.60
2018-09-19T00:38:54.975Z,21.67
2018-09-19T00:39:30.138Z,21.65
2018-09-19T00:40:05.359Z,21.62
2018-09-19T00:40:40.939Z,21.52
2018-09-19T00:41:16.308Z,21.47
2018-09-19T00:41:51.600Z,21.49
2018-09-19T00:42:26.957Z,21.49
2018-09-19T00:43:02.163Z,21.55
2018-09-19T00:43:37.368Z,21.46
2018-09-19T00:44:12.975Z,21.50
2018-09-19T00:44:48.272Z,21.45
2018-09-19T00:45:23.472Z,21.58
2018-09-19T00:45:58.689Z,21.56
2018-09-19T00:46:33.861Z,21.62
2018-09-19T00:47:09.042Z,21.62
2018-09-19T00:47:44.411Z,21.63
2018-09-19T00:48:19.925Z,21.60
2018-09-19T00:48:55.153Z,21.54
2018-09-19T00:49:30.321Z,21.58
2018-09-19T00:50:05.687Z,21.64
2018-09-19T00:50:41.143Z,21.58
2018-09-19T00:51:16.415Z,21.60
2018-09-19T00:51:51.629Z,21.60
2018-09-19T00:52:27.101Z,21.66
2018-09-19T00:53:02.282Z,21.59
2018-09-19T00:53:37.499Z,21.59
2018-09-19T00:54:13.300Z,21.59
2018-09-19T00:54:48.616Z,21.53
2018-09-19T00:55:23.788Z,21.53
2018-09-19T00:55:59.032Z,21.51
2018-09-19T00:56:34.366Z,21.45
2018-09-19T00:57:09.580Z,21.44
2018-09-19T00:57:45.290Z,21.43
2018-09-19T00:58:20.647Z,21.35
2018-09-19T00:58:55.834Z,21.48
2018-09-19T00:59:31.078Z,21.46
2018-09-19T01:00:06.780Z,21.46
2018-09-19T01:00:42.270Z,21.44
2018-09-19T01:01:17.812Z,21.35
2018-09-19T01:01:53.027Z,21.32
2018-09-19T01:02:28.202Z,21.26
2018-09-19T01:03:03.358Z,21.22
2018-09-19T01:03:38.916Z,21.24
2018-09-19T01:04:14.548Z,21.31
2018-09-19T01:04:50.047Z,21.35
2018-09-19T01:05:25.268Z,21.37
2018-09-19T01:06:00.433Z,21.40
2018-09-19T01:06:35.603Z,21.44
2018-09-19T01:07:10.764Z,21.34
2018-09-19T01:07:46.421Z,21.34
2018-09-19T01:08:21.681Z,21.28
2018-09-19T01:09:38.162Z,21.33
2018-09-19T01:10:14.067Z,21.33
2018-09-19T01:10:49.642Z,21.30
2018-09-19T01:11:24.838Z,21.29
2018-09-19T01:11:59.990Z,21.27
2018-09-19T01:12:35.144Z,21.30
2018-09-19T01:13:10.389Z,21.27
2018-09-19T01:13:45.718Z,21.25
2018-09-19T01:14:21.011Z,21.20
2018-09-19T01:14:56.206Z,21.35
2018-09-19T01:15:31.349Z,21.37
2018-09-19T01:16:07.259Z,21.34
2018-09-19T01:16:42.710Z,21.29
2018-09-19T01:17:20.288Z,21.39
2018-09-19T01:17:55.646Z,21.34
2018-09-19T01:18:32.116Z,21.32
2018-09-19T01:19:07.517Z,21.25
2018-09-19T01:19:43.173Z,21.25
2018-09-19T01:20:19.537Z,21.20
2018-09-19T01:20:54.869Z,21.18
2018-09-19T01:21:30.057Z,21.14
2018-09-19T01:22:05.294Z,21.17
2018-09-19T01:22:40.557Z,21.17
2018-09-19T01:23:15.972Z,21.25
2018-09-19T01:23:51.432Z,21.21
2018-09-19T01:24:26.683Z,21.23
2018-09-19T01:25:02.041Z,21.35
2018-09-19T01:25:37.696Z,21.26
2018-09-19T01:26:13.572Z,21.27
2018-09-19T01:26:49.131Z,21.22
2018-09-19T01:27:25.575Z,21.28
2018-09-19T01:28:01.197Z,21.25
2018-09-19T01:28:36.511Z,21.30
2018-09-19T01:29:12.806Z,21.29
2018-09-19T01:29:49.061Z,21.32
2018-09-19T01:30:24.575Z,21.27
2018-09-19T01:30:59.906Z,21.31
2018-09-19T01:31:35.441Z,21.26
2018-09-19T01:32:11.013Z,21.30
2018-09-19T01:32:47.071Z,21.32
2018-09-19T01:33:23.630Z,21.29
2018-09-19T01:33:59.196Z,21.34
2018-09-19T01:34:34.893Z,21.30
2018-09-19T01:35:11.191Z,21.25
2018-09-19T01:35:46.957Z,21.24
2018-09-19T01:36:22.439Z,21.34
2018-09-19T01:36:57.961Z,21.33
2018-09-19T01:37:33.608Z,21.28
2018-09-19T01:38:09.651Z,21.31
2018-09-19T01:38:45.302Z,21.28
2018-09-19T01:39:20.886Z,21.20
2018-09-19T01:39:56.332Z,21.26
2018-09-19T01:40:31.812Z,21.23
2018-09-19T01:41:08.332Z,21.18
2018-09-19T01:41:43.808Z,21.22
2018-09-19T01:42:19.415Z,21.25
2018-09-19T01:42:55.754Z,21.33
2018-09-19T01:43:31.369Z,21.27
2018-09-19T01:44:06.709Z,21.26
2018-09-19T01:44:42.035Z,21.19
2018-09-19T01:45:17.995Z,21.18
2018-09-19T01:45:53.309Z,21.20
2018-09-19T01:46:28.542Z,21.21
2018-09-19T01:47:05.953Z,21.22
2018-09-19T01:47:41.298Z,21.17
2018-09-19T01:48:17.162Z,21.25
2018-09-19T01:48:52.443Z,21.33
2018-09-19T01:49:27.743Z,21.25
2018-09-19T01:50:03.139Z,21.16
2018-09-19T01:50:39.712Z,21.11
2018-09-19T01:51:16.329Z,21.11
2018-09-19T01:51:54.395Z,21.12
2018-09-19T01:52:29.680Z,21.15
2018-09-19T01:53:05.490Z,21.12
2018-09-19T01:53:41.247Z,21.14
2018-09-19T01:54:16.708Z,21.25
2018-09-19T01:54:52.008Z,21.18
2018-09-19T01:55:27.191Z,21.32
2018-09-19T01:56:02.503Z,21.27
2018-09-19T01:56:37.658Z,21.23
2018-09-19T01:57:12.954Z,21.20
2018-09-19T01:57:48.304Z,21.24
2018-09-19T01:58:23.526Z,21.26
2018-09-19T01:58:58.708Z,21.16
2018-09-19T01:59:34.011Z,21.12
2018-09-19T02:00:09.421Z,21.16
2018-09-19T02:00:44.712Z,21.24
2018-09-19T02:01:20.010Z,21.14
2018-09-19T02:01:55.201Z,21.10
2018-09-19T02:02:30.561Z,21.16
2018-09-19T02:03:05.817Z,21.23
2018-09-19T02:03:41.024Z,21.26
2018-09-19T02:04:16.576Z,21.26
2018-09-19T02:04:51.818Z,21.12
2018-09-19T02:05:27.520Z,21.10
2018-09-19T02:06:02.205Z,21.09
2018-09-19T02:06:37.488Z,21.06
2018-09-19T02:07:12.890Z,21.03
2018-09-19T02:07:48.154Z,21.01
2018-09-19T02:08:23.326Z,21.02
2018-09-19T02:08:58.535Z,21.06
2018-09-19T02:09:33.722Z,21.01
2018-09-19T02:10:09.080Z,21.00
2018-09-19T02:10:44.560Z,21.02
2018-09-19T02:11:20.039Z,21.00
2018-09-19T02:11:55.217Z,20.96
2018-09-19T02:12:30.377Z,20.98
2018-09-19T02:13:05.545Z,21.05
2018-09-19T02:13:40.743Z,21.14
2018-09-19T02:14:16.148Z,21.07
2018-09-19T02:14:51.387Z,21.06
2018-09-19T02:15:26.562Z,21.05
2018-09-19T02:16:01.736Z,21.12
2018-09-19T02:16:37.353Z,21.06
2018-09-19T02:17:12.709Z,20.97
2018-09-19T02:17:48.035Z,21.09
2018-09-19T02:18:23.224Z,21.13
2018-09-19T02:18:58.386Z,21.12
2018-09-19T02:19:33.540Z,21.06
2018-09-19T02:20:08.723Z,21.02
2018-09-19T02:20:44.030Z,21.02
2018-09-19T02:21:19.388Z,20.98
2018-09-19T02:21:54.604Z,20.97
2018-09-19T02:22:30.313Z,20.98
2018-09-19T02:23:05.678Z,21.01
2018-09-19T02:23:40.905Z,20.97
2018-09-19T02:24:16.201Z,20.93
2018-09-19T02:24:51.411Z,20.89
2018-09-19T02:25:26.582Z,20.92
2018-09-19T02:26:01.776Z,20.88
2018-09-19T02:26:36.958Z,20.87
2018-09-19T02:27:12.308Z,20.85
2018-09-19T02:27:47.749Z,20.87
2018-09-19T02:28:23.352Z,20.89
2018-09-19T02:28:58.743Z,20.85
2018-09-19T02:29:34.279Z,20.92
2018-09-19T02:30:09.561Z,20.90
2018-09-19T02:30:45.007Z,20.89
2018-09-19T02:31:20.295Z,20.88
2018-09-19T02:31:55.478Z,20.84
2018-09-19T02:32:30.658Z,20.84
2018-09-19T02:33:06.028Z,20.96
2018-09-19T02:33:41.234Z,21.00
2018-09-19T02:34:16.593Z,20.96
2018-09-19T02:34:51.823Z,20.94
2018-09-19T02:35:27.017Z,20.85
2018-09-19T02:36:02.445Z,20.85
2018-09-19T02:36:37.615Z,20.80
2018-09-19T02:37:13.043Z,20.79
2018-09-19T02:37:48.618Z,20.77
2018-09-19T02:38:23.802Z,20.75
2018-09-19T02:38:59.223Z,20.77
2018-09-19T02:39:34.397Z,20.81
2018-09-19T02:40:09.635Z,20.81
2018-09-19T02:40:45.065Z,20.75
2018-09-19T02:41:20.780Z,20.77
2018-09-19T02:41:55.972Z,20.73
2018-09-19T02:42:31.127Z,20.80
2018-09-19T02:43:06.399Z,20.77
2018-09-19T02:43:41.691Z,20.74
2018-09-19T02:44:17.498Z,20.76
2018-09-19T02:44:52.725Z,20.71
2018-09-19T02:45:27.942Z,20.73
2018-09-19T02:46:03.221Z,20.74
2018-09-19T02:46:38.535Z,20.73
2018-09-19T02:47:13.892Z,20.69
2018-09-19T02:47:49.218Z,20.68
2018-09-19T02:48:24.413Z,20.67
2018-09-19T02:48:59.638Z,20.64
2018-09-19T02:49:34.813Z,20.62
2018-09-19T02:50:10.046Z,20.59
2018-09-19T02:50:45.583Z,20.57
2018-09-19T02:51:20.803Z,20.57
2018-09-19T02:51:58.193Z,20.56
2018-09-19T02:52:33.378Z,20.55
2018-09-19T02:53:08.785Z,20.54
2018-09-19T02:53:45.059Z,20.59
2018-09-19T02:54:20.338Z,20.59
2018-09-19T02:54:55.507Z,20.60
2018-09-19T02:55:30.681Z,20.54
2018-09-19T02:56:06.272Z,20.50
2018-09-19T02:56:42.114Z,20.46
2018-09-19T02:57:17.364Z,20.47
2018-09-19T02:57:52.605Z,20.48
2018-09-19T02:58:27.891Z,20.46
2018-09-19T02:59:03.092Z,20.43
2018-09-19T02:59:38.466Z,20.41
2018-09-19T03:00:14.003Z,20.38
2018-09-19T03:00:49.275Z,20.36
2018-09-19T03:01:24.597Z,20.38
2018-09-19T03:02:00.299Z,20.44
2018-09-19T03:02:35.466Z,20.51
2018-09-19T03:03:10.660Z,20.45
2018-09-19T03:03:46.346Z,20.41
2018-09-19T03:04:21.519Z,20.47
2018-09-19T03:04:56.914Z,20.56
2018-09-19T03:05:32.306Z,20.53
2018-09-19T03:06:07.509Z,20.46
2018-09-19T03:06:42.902Z,20.40
2018-09-19T03:07:18.326Z,20.32
2018-09-19T03:07:53.542Z,20.28
2018-09-19T03:08:29.074Z,20.26
2018-09-19T03:09:04.810Z,20.30
2018-09-19T03:09:40.098Z,20.19
2018-09-19T03:10:15.625Z,20.19
2018-09-19T03:10:50.837Z,20.18
2018-09-19T03:11:26.021Z,20.15
2018-09-19T03:12:01.226Z,20.13
2018-09-19T03:12:36.530Z,20.13
2018-09-19T03:13:11.241Z,20.11
2018-09-19T03:13:46.767Z,20.11
2018-09-19T03:14:22.487Z,20.09
2018-09-19T03:14:57.750Z,20.10
2018-09-19T03:15:32.956Z,20.07
2018-09-19T03:16:08.147Z,20.07
2018-09-19T03:16:43.522Z,20.09
2018-09-19T03:17:18.790Z,20.09
2018-09-19T03:17:54.244Z,20.08
2018-09-19T03:18:29.410Z,20.12
2018-09-19T03:19:04.607Z,20.16
2018-09-19T03:19:39.800Z,20.23
2018-09-19T03:20:15.070Z,20.19
2018-09-19T03:20:50.773Z,20.25
2018-09-19T03:21:25.994Z,20.22
2018-09-19T03:22:01.279Z,20.21
2018-09-19T03:22:36.449Z,20.15
2018-09-19T03:23:11.719Z,20.21
2018-09-19T03:23:47.018Z,20.24
2018-09-19T03:24:22.269Z,20.17
2018-09-19T03:24:57.470Z,20.12
2018-09-19T03:25:32.686Z,20.26
2018-09-19T03:26:08.077Z,20.24
2018-09-19T03:26:43.540Z,20.18
2018-09-19T03:27:18.875Z,20.14
2018-09-19T03:27:54.029Z,20.13
2018-09-19T03:28:29.262Z,20.13
2018-09-19T03:29:04.510Z,20.08
2018-09-19T03:29:39.719Z,20.20
2018-09-19T03:30:15.372Z,20.24
2018-09-19T03:30:50.684Z,20.14
2018-09-19T03:31:26.049Z,20.24
2018-09-19T03:32:01.285Z,20.25
2018-09-19T03:32:36.664Z,20.16
2018-09-19T03:33:11.436Z,20.11
2018-09-19T03:33:47.057Z,20.12
2018-09-19T03:34:22.547Z,20.10
2018-09-19T03:34:57.690Z,20.20
2018-09-19T03:35:33.404Z,20.22
2018-09-19T03:36:08.755Z,20.16
2018-09-19T03:36:44.235Z,20.26
2018-09-19T03:37:19.630Z,20.24
2018-09-19T03:37:55.123Z,20.22
2018-09-19T03:38:30.351Z,20.17
2018-09-19T03:39:08.255Z,20.14
2018-09-19T03:39:43.679Z,20.11
2018-09-19T03:40:18.967Z,20.14
2018-09-19T03:40:54.172Z,20.19
2018-09-19T03:41:29.452Z,20.24
2018-09-19T03:42:04.671Z,20.24
2018-09-19T03:42:39.854Z,20.22
2018-09-19T03:43:15.136Z,20.24
2018-09-19T03:43:50.459Z,20.29
2018-09-19T03:44:25.699Z,20.22
2018-09-19T03:45:00.914Z,20.14
2018-09-19T03:45:36.081Z,20.11
2018-09-19T03:46:11.302Z,20.07
2018-09-19T03:46:46.762Z,20.13
2018-09-19T03:47:22.062Z,20.19
2018-09-19T03:47:57.246Z,20.23
2018-09-19T03:48:32.459Z,20.14
2018-09-19T03:49:08.577Z,20.19
2018-09-19T03:49:43.938Z,20.14
2018-09-19T03:50:19.273Z,20.12
2018-09-19T03:50:54.472Z,20.08
2018-09-19T03:51:29.655Z,20.13
2018-09-19T03:52:04.377Z,20.19
2018-09-19T03:52:39.573Z,20.16
2018-09-19T03:53:14.902Z,20.16
2018-09-19T03:53:50.130Z,20.21
2018-09-19T03:54:25.363Z,20.13
2018-09-19T03:55:00.575Z,20.04
2018-09-19T03:55:35.772Z,20.02
2018-09-19T03:56:11.489Z,20.03
2018-09-19T03:56:46.762Z,20.08
2018-09-19T03:57:22.047Z,20.08
2018-09-19T03:57:57.236Z,20.15
2018-09-19T03:58:32.604Z,20.12
2018-09-19T03:59:07.973Z,20.10
2018-09-19T03:59:43.279Z,20.07
2018-09-19T04:00:18.664Z,20.00
2018-09-19T04:00:53.862Z,20.05
2018-09-19T04:01:29.067Z,19.96
2018-09-19T04:02:04.957Z,19.99
2018-09-19T04:02:40.568Z,20.04
2018-09-19T04:03:15.849Z,20.05
2018-09-19T04:03:51.140Z,20.01
2018-09-19T04:04:26.531Z,19.96
2018-09-19T04:05:01.677Z,20.07
2018-09-19T04:05:36.830Z,20.12
2018-09-19T04:06:12.435Z,20.09
2018-09-19T04:06:47.724Z,20.02
2018-09-19T04:07:22.954Z,20.01
2018-09-19T04:07:58.129Z,19.99
2018-09-19T04:08:32.827Z,19.93
2018-09-19T04:09:12.555Z,19.99
2018-09-19T04:09:47.974Z,19.94
2018-09-19T04:10:23.197Z,19.89
2018-09-19T04:10:58.431Z,19.95
2018-09-19T04:11:33.597Z,19.85
2018-09-19T04:12:08.807Z,19.87
2018-09-19T04:12:44.122Z,19.84
2018-09-19T04:13:19.378Z,19.82
2018-09-19T04:13:54.580Z,19.85
2018-09-19T04:14:29.749Z,19.85
2018-09-19T04:15:05.097Z,19.78
2018-09-19T04:15:40.268Z,19.78
2018-09-19T04:16:15.596Z,19.70
2018-09-19T04:16:50.840Z,19.69
2018-09-19T04:17:26.028Z,19.74
2018-09-19T04:18:01.273Z,19.80
2018-09-19T04:18:36.447Z,19.72
2018-09-19T04:19:11.676Z,19.70
2018-09-19T04:19:47.211Z,19.69
2018-09-19T04:20:22.415Z,19.66
2018-09-19T04:20:57.585Z,19.67
2018-09-19T04:21:33.123Z,19.74
2018-09-19T04:22:08.340Z,19.82
2018-09-19T04:22:43.646Z,19.75
2018-09-19T04:23:18.879Z,19.75
2018-09-19T04:23:54.039Z,19.68
2018-09-19T04:24:29.240Z,19.64
2018-09-19T04:25:04.853Z,19.71
2018-09-19T04:25:40.044Z,19.77
2018-09-19T04:26:15.088Z,19.83
2018-09-19T04:26:50.136Z,19.72
2018-09-19T04:27:24.877Z,19.71
2018-09-19T04:28:00.073Z,19.55
2018-09-19T04:28:35.258Z,19.57
2018-09-19T04:29:10.558Z,19.55
2018-09-19T04:29:45.828Z,19.46
2018-09-19T04:30:21.141Z,19.43
2018-09-19T04:30:56.346Z,19.48
2018-09-19T04:31:31.542Z,19.50
2018-09-19T04:32:07.005Z,19.58
2018-09-19T04:32:42.525Z,19.67
2018-09-19T04:33:17.919Z,19.62
2018-09-19T04:33:53.119Z,19.57
2018-09-19T04:34:28.327Z,19.56
2018-09-19T04:35:03.946Z,19.51
2018-09-19T04:35:39.111Z,19.48
2018-09-19T04:36:14.402Z,19.45
2018-09-19T04:36:50.070Z,19.44
2018-09-19T04:37:25.281Z,19.42
2018-09-19T04:38:00.432Z,19.36
2018-09-19T04:38:35.741Z,19.40
2018-09-19T04:39:12.413Z,19.37
2018-09-19T04:39:47.715Z,19.38
2018-09-19T04:40:22.970Z,19.41
2018-09-19T04:40:58.145Z,19.43
2018-09-19T04:41:33.388Z,19.53
2018-09-19T04:42:08.078Z,19.51
2018-09-19T04:42:43.644Z,19.46
2018-09-19T04:43:18.925Z,19.44
2018-09-19T04:43:54.130Z,19.42
2018-09-19T04:44:29.312Z,19.42
2018-09-19T04:45:04.590Z,19.42
2018-09-19T04:45:39.905Z,19.45
2018-09-19T04:46:15.261Z,19.45
2018-09-19T04:46:50.645Z,19.41
2018-09-19T04:47:25.861Z,19.35
2018-09-19T04:48:01.059Z,19.38
2018-09-19T04:48:36.390Z,19.32
2018-09-19T04:49:11.713Z,19.31
2018-09-19T04:49:46.988Z,19.32
2018-09-19T04:50:22.202Z,19.37
2018-09-19T04:50:57.356Z,19.36
2018-09-19T04:51:32.670Z,19.34
2018-09-19T04:52:08.187Z,19.32
2018-09-19T04:52:43.541Z,19.28
2018-09-19T04:53:18.947Z,19.25
2018-09-19T04:53:54.186Z,19.27
2018-09-19T04:54:29.571Z,19.26
2018-09-19T04:55:06.182Z,19.22
2018-09-19T04:55:41.412Z,19.25
2018-09-19T04:56:16.737Z,19.19
2018-09-19T04:56:52.214Z,19.25
2018-09-19T04:57:27.428Z,19.30
2018-09-19T04:58:02.591Z,19.36
2018-09-19T04:58:37.988Z,19.33
2018-09-19T04:59:13.768Z,19.22
2018-09-19T04:59:49.586Z,19.31
2018-09-19T05:00:24.831Z,19.25
2018-09-19T05:01:00.003Z,19.25
2018-09-19T05:01:35.390Z,19.24
2018-09-19T05:02:10.705Z,19.29
2018-09-19T05:02:46.075Z,19.25
2018-09-19T05:03:21.289Z,19.23
2018-09-19T05:03:56.510Z,19.23
2018-09-19T05:04:31.717Z,19.19
2018-09-19T05:05:06.971Z,19.14
2018-09-19T05:05:42.396Z,19.17
2018-09-19T05:06:18.015Z,19.18
2018-09-19T05:06:53.213Z,19.18
2018-09-19T05:07:28.442Z,19.17
2018-09-19T05:08:03.820Z,19.30
2018-09-19T05:08:39.008Z,19.32
2018-09-19T05:09:14.333Z,19.26
2018-09-19T05:09:49.772Z,19.18
2018-09-19T05:10:25.111Z,19.21
2018-09-19T05:11:00.300Z,19.18
2018-09-19T05:11:35.731Z,19.19
2018-09-19T05:12:11.012Z,19.17
2018-09-19T05:12:46.324Z,19.23
2018-09-19T05:13:21.593Z,19.21
2018-09-19T05:13:56.769Z,19.14
2018-09-19T05:14:31.971Z,19.17
2018-09-19T05:15:07.162Z,19.10
2018-09-19T05:15:42.567Z,19.08
2018-09-19T05:16:18.126Z,19.13
2018-09-19T05:16:53.384Z,19.22
2018-09-19T05:17:28.620Z,19.27
2018-09-19T05:18:04.007Z,19.12
2018-09-19T05:18:39.194Z,19.18
2018-09-19T05:19:14.557Z,19.25
2018-09-19T05:19:49.948Z,19.16
2018-09-19T05:20:25.546Z,19.15
2018-09-19T05:21:00.720Z,19.17
2018-09-19T05:21:35.920Z,19.07
2018-09-19T05:22:11.767Z,19.13
2018-09-19T05:22:47.217Z,19.19
2018-09-19T05:23:22.534Z,19.18
2018-09-19T05:23:57.802Z,19.24
2018-09-19T05:24:32.978Z,19.21
2018-09-19T05:25:08.209Z,19.18
2018-09-19T05:25:43.583Z,19.22
2018-09-19T05:26:19.346Z,19.17
2018-09-19T05:26:54.880Z,19.16
2018-09-19T05:27:30.101Z,19.26
2018-09-19T05:28:05.287Z,19.34
2018-09-19T05:28:41.568Z,19.30
2018-09-19T05:29:16.846Z,19.26
2018-09-19T05:29:52.266Z,19.26
2018-09-19T05:30:27.574Z,19.36
2018-09-19T05:31:02.801Z,19.28
2018-09-19T05:31:37.988Z,19.30
2018-09-19T05:32:13.533Z,19.27
2018-09-19T05:32:48.892Z,19.21
2018-09-19T05:33:24.119Z,19.21
2018-09-19T05:33:59.328Z,19.21
2018-09-19T05:34:34.513Z,19.30
2018-09-19T05:35:09.732Z,19.45
2018-09-19T05:35:45.292Z,19.38
2018-09-19T05:36:20.561Z,19.47
2018-09-19T05:36:55.766Z,19.38
2018-09-19T05:37:30.935Z,19.37
2018-09-19T05:38:06.152Z,19.33
2018-09-19T05:38:42.082Z,19.42
2018-09-19T05:39:17.419Z,19.43
2018-09-19T05:39:52.771Z,19.40
2018-09-19T05:40:27.939Z,19.34
2018-09-19T05:41:03.266Z,19.34
2018-09-19T05:41:38.433Z,19.41
2018-09-19T05:42:13.895Z,19.39
2018-09-19T05:42:49.309Z,19.39
2018-09-19T05:43:24.522Z,19.31
2018-09-19T05:43:59.732Z,19.29
2018-09-19T05:44:34.941Z,19.29
2018-09-19T05:45:10.189Z,19.31
2018-09-19T05:45:45.793Z,19.38
2018-09-19T05:46:21.271Z,19.49
2018-09-19T05:46:56.707Z,19.56
2018-09-19T05:47:31.894Z,19.56
2018-09-19T05:48:07.300Z,19.60
2018-09-19T05:48:42.916Z,19.54
2018-09-19T05:49:18.459Z,19.51
2018-09-19T05:49:53.760Z,19.46
2018-09-19T05:50:28.990Z,19.47
2018-09-19T05:51:04.624Z,19.50
2018-09-19T05:51:39.798Z,19.56
2018-09-19T05:52:15.160Z,19.50
2018-09-19T05:52:50.632Z,19.60
2018-09-19T05:53:25.842Z,19.52
2018-09-19T05:54:01.195Z,19.46
2018-09-19T05:54:36.419Z,19.56
2018-09-19T05:55:11.887Z,19.55
2018-09-19T05:55:47.335Z,19.53
2018-09-19T05:56:22.696Z,19.59
2018-09-19T05:56:57.894Z,19.50
2018-09-19T05:57:33.115Z,19.48
2018-09-19T05:58:08.326Z,19.57
2018-09-19T05:58:43.707Z,19.57
2018-09-19T05:59:19.329Z,19.58
2018-09-19T05:59:54.712Z,19.58
2018-09-19T06:00:29.927Z,19.50
2018-09-19T06:01:05.149Z,19.46
2018-09-19T06:01:40.388Z,19.41
2018-09-19T06:02:16.080Z,19.49
2018-09-19T06:02:51.469Z,19.49
2018-09-19T06:03:26.644Z,19.44
2018-09-19T06:04:01.988Z,19.49
2018-09-19T06:04:37.166Z,19.44
2018-09-19T06:05:13.045Z,19.41
2018-09-19T06:05:48.488Z,19.47
2018-09-19T06:06:24.160Z,19.45
2018-09-19T06:06:59.476Z,19.47
2018-09-19T06:07:34.663Z,19.46
2018-09-19T06:08:09.853Z,19.53
2018-09-19T06:08:48.492Z,19.56
2018-09-19T06:09:24.023Z,19.55
2018-09-19T06:09:59.210Z,19.60
2018-09-19T06:10:34.578Z,19.60
2018-09-19T06:11:09.970Z,19.69
2018-09-19T06:11:45.459Z,19.67
2018-09-19T06:12:21.185Z,19.78
2018-09-19T06:12:56.779Z,19.72
2018-09-19T06:13:32.131Z,19.66
2018-09-19T06:14:07.664Z,19.60
2018-09-19T06:14:43.038Z,19.64
2018-09-19T06:15:18.406Z,19.63
2018-09-19T06:15:53.806Z,19.57
2018-09-19T06:16:29.000Z,19.53
2018-09-19T06:17:04.214Z,19.48
2018-09-19T06:17:39.450Z,19.57
2018-09-19T06:18:15.113Z,19.59
2018-09-19T06:18:50.700Z,19.60
2018-09-19T06:19:29.661Z,19.55
2018-09-19T06:20:07.331Z,19.71
2018-09-19T06:20:48.966Z,19.70
2018-09-19T06:21:24.850Z,19.60
2018-09-19T06:22:00.001Z,19.58
2018-09-19T06:22:35.186Z,19.62
2018-09-19T06:23:10.426Z,19.65
2018-09-19T06:23:46.321Z,19.70
2018-09-19T06:24:21.935Z,19.68
2018-09-19T06:24:57.238Z,19.63
2018-09-19T06:25:32.592Z,19.68
2018-09-19T06:26:08.463Z,19.71
2018-09-19T06:26:43.803Z,19.72
2018-09-19T06:27:19.064Z,19.76
2018-09-19T06:27:54.277Z,19.72
2018-09-19T06:28:29.471Z,19.72
2018-09-19T06:29:04.636Z,19.80
2018-09-19T06:29:39.351Z,19.86
2018-09-19T06:30:14.948Z,19.85
2018-09-19T06:30:50.564Z,19.87
2018-09-19T06:31:26.054Z,19.92
2018-09-19T06:32:01.238Z,19.89
2018-09-19T06:32:36.465Z,19.91
2018-09-19T06:33:12.013Z,20.04
2018-09-19T06:33:47.419Z,19.95
2018-09-19T06:34:22.788Z,19.91
2018-09-19T06:34:58.102Z,19.95
2018-09-19T06:35:33.277Z,20.02
2018-09-19T06:36:08.477Z,20.07
2018-09-19T06:36:43.885Z,20.08
2018-09-19T06:37:19.163Z,20.04
2018-09-19T06:37:54.452Z,20.09
2018-09-19T06:38:29.674Z,20.06
2018-09-19T06:39:06.238Z,20.09
2018-09-19T06:39:41.732Z,20.21
2018-09-19T06:40:17.040Z,20.22
2018-09-19T06:40:53.086Z,20.17
2018-09-19T06:41:28.402Z,20.14
2018-09-19T06:42:03.619Z,20.19
2018-09-19T06:42:38.798Z,20.15
2018-09-19T06:43:14.166Z,20.18
2018-09-19T06:43:49.517Z,20.16
2018-09-19T06:44:24.731Z,20.13
2018-09-19T06:44:59.951Z,19.99
2018-09-19T06:45:35.192Z,20.04
2018-09-19T06:46:11.552Z,20.18
2018-09-19T06:46:47.537Z,20.20
2018-09-19T06:47:23.495Z,20.12
2018-09-19T06:47:58.694Z,20.15
2018-09-19T06:48:33.883Z,20.10
2018-09-19T06:49:09.158Z,20.19
2018-09-19T06:49:44.568Z,20.10
2018-09-19T06:50:20.010Z,20.07
2018-09-19T06:50:55.385Z,20.11
2018-09-19T06:51:30.575Z,20.14
2018-09-19T06:52:05.882Z,20.25
2018-09-19T06:52:41.530Z,20.32
2018-09-19T06:53:16.817Z,20.33
2018-09-19T06:53:52.104Z,20.27
2018-09-19T06:54:27.306Z,20.34
2018-09-19T06:55:02.521Z,20.35
2018-09-19T06:55:37.892Z,20.45
2018-09-19T06:56:13.948Z,20.45
2018-09-19T06:56:49.436Z,20.31
2018-09-19T06:57:24.787Z,20.27
2018-09-19T06:58:00.168Z,20.32
2018-09-19T06:58:35.404Z,20.33
2018-09-19T06:59:11.621Z,20.31
2018-09-19T06:59:47.048Z,20.27
2018-09-19T07:00:22.375Z,20.35
2018-09-19T07:00:57.611Z,20.37
2018-09-19T07:01:32.772Z,20.43
2018-09-19T07:02:07.974Z,20.46
2018-09-19T07:02:43.710Z,20.50
2018-09-19T07:03:19.119Z,20.53
2018-09-19T07:03:54.433Z,20.62
2018-09-19T07:04:29.682Z,20.67
2018-09-19T07:05:05.318Z,20.63
2018-09-19T07:05:40.501Z,20.63
2018-09-19T07:06:16.118Z,20.61
2018-09-19T07:06:51.448Z,20.62
2018-09-19T07:07:26.666Z,20.61
2018-09-19T07:08:01.847Z,20.59
2018-09-19T07:08:37.040Z,20.64
2018-09-19T07:09:12.563Z,20.64
2018-09-19T07:09:48.222Z,20.66
2018-09-19T07:10:23.588Z,20.68
2018-09-19T07:10:58.964Z,20.68
2018-09-19T07:11:34.320Z,20.70
2018-09-19T07:12:09.542Z,20.71
2018-09-19T07:12:44.930Z,20.71
2018-09-19T07:13:20.423Z,20.69
2018-09-19T07:13:55.639Z,20.74
2018-09-19T07:14:30.970Z,20.79
2018-09-19T07:15:06.215Z,20.85
2018-09-19T07:15:41.485Z,20.97
2018-09-19T07:16:17.274Z,20.97
2018-09-19T07:16:52.617Z,21.06
2018-09-19T07:17:27.809Z,21.05
2018-09-19T07:18:02.998Z,20.99
2018-09-19T07:18:38.271Z,20.96
2018-09-19T07:19:13.584Z,21.07
2018-09-19T07:19:49.348Z,21.06
2018-09-19T07:20:24.849Z,20.98
2018-09-19T07:21:00.054Z,21.00
2018-09-19T07:21:35.740Z,21.04
2018-09-19T07:22:11.288Z,21.04
2018-09-19T07:22:46.567Z,21.07
2018-09-19T07:23:21.900Z,21.12
2018-09-19T07:23:57.321Z,21.16
2018-09-19T07:24:32.654Z,21.09
2018-09-19T07:25:08.264Z,21.12
2018-09-19T07:25:44.023Z,21.09
2018-09-19T07:26:20.163Z,21.25
2018-09-19T07:26:55.418Z,21.35
2018-09-19T07:27:30.765Z,21.31
2018-09-19T07:28:06.063Z,21.42
2018-09-19T07:28:41.287Z,21.39
2018-09-19T07:29:17.011Z,21.34
2018-09-19T07:29:52.367Z,21.35
2018-09-19T07:30:27.790Z,21.35
2018-09-19T07:31:03.009Z,21.37
2018-09-19T07:31:38.366Z,21.45
2018-09-19T07:32:13.966Z,21.42
2018-09-19T07:32:49.419Z,21.38
2018-09-19T07:33:24.751Z,21.34
2018-09-19T07:33:59.960Z,21.32
2018-09-19T07:34:35.222Z,21.32
2018-09-19T07:35:10.466Z,21.37
2018-09-19T07:35:45.805Z,21.34
2018-09-19T07:36:21.345Z,21.34